createdAt,value
2017-10-29T00:02:19.193Z,17.50
2017-10-29T00:04:46.671Z,17.50
2017-10-29T00:07:14.139Z,17.40
2017-10-29T00:09:41.604Z,17.40
2017-10-29T00:12:09.062Z,17.40
2017-10-29T00:14:36.522Z,17.40
2017-10-29T00:17:03.975Z,17.40
2017-10-29T00:19:31.438Z,17.40
2017-10-29T00:21:58.891Z,17.30
2017-10-29T00:24:26.352Z,17.40
2017-10-29T00:26:53.806Z,17.30
2017-10-29T00:29:21.264Z,17.30
2017-10-29T00:31:48.711Z,17.30
2017-10-29T00:34:16.174Z,17.30
2017-10-29T00:36:43.622Z,17.30
2017-10-29T00:39:11.093Z,17.30
2017-10-29T00:41:38.546Z,17.30
2017-10-29T00:44:06.009Z,17.30
2017-10-29T00:46:33.499Z,17.30
2017-10-29T00:49:01.756Z,17.30
2017-10-29T00:51:29.974Z,17.30
2017-10-29T00:53:57.433Z,17.30
2017-10-29T00:56:24.886Z,17.30
2017-10-29T00:58:52.346Z,17.30
2017-10-29T01:01:19.816Z,17.20
2017-10-29T01:03:47.271Z,17.20
2017-10-29T01:06:14.743Z,17.30
2017-10-29T01:08:42.205Z,17.20
2017-10-29T01:11:09.656Z,17.20
2017-10-29T01:13:37.106Z,17.20
2017-10-29T01:16:04.573Z,17.20
2017-10-29T01:18:32.010Z,17.20
2017-10-29T01:20:59.497Z,17.20
2017-10-29T01:23:26.948Z,17.20
2017-10-29T01:25:54.421Z,17.20
2017-10-29T01:28:21.870Z,17.20
2017-10-29T01:30:49.328Z,17.20
2017-10-29T01:33:16.805Z,17.20
2017-10-29T01:35:45.050Z,17.10
2017-10-29T01:38:12.622Z,17.10
2017-10-29T01:40:40.078Z,17.10
2017-10-29T01:43:07.535Z,17.10
2017-10-29T01:45:34.978Z,17.10
2017-10-29T01:48:02.460Z,17.10
2017-10-29T01:50:29.917Z,17.10
2017-10-29T01:52:57.374Z,17.10
2017-10-29T01:55:24.843Z,17.10
2017-10-29T01:57:53.107Z,17.00
2017-10-29T02:00:20.563Z,17.00
2017-10-29T02:02:48.019Z,17.00
2017-10-29T02:05:15.479Z,17.10
2017-10-29T02:07:42.937Z,17.00
2017-10-29T02:10:11.162Z,17.00
2017-10-29T02:12:38.610Z,17.00
2017-10-29T02:15:06.067Z,17.00
2017-10-29T02:17:33.519Z,17.00
2017-10-29T02:20:01.000Z,17.00
2017-10-29T02:22:28.444Z,17.00
2017-10-29T02:24:55.907Z,16.90
2017-10-29T02:27:23.366Z,16.90
2017-10-29T02:29:50.831Z,16.90
2017-10-29T02:32:18.274Z,16.90
2017-10-29T02:34:45.730Z,16.90
2017-10-29T02:37:13.181Z,16.90
2017-10-29T02:39:40.637Z,16.90
2017-10-29T02:42:08.086Z,16.90
2017-10-29T02:44:35.542Z,16.90
2017-10-29T02:47:02.995Z,16.90
2017-10-29T02:49:30.458Z,16.80
2017-10-29T02:51:57.910Z,16.70
2017-10-29T02:54:25.380Z,16.80
2017-10-29T02:56:52.846Z,16.80
2017-10-29T02:59:20.306Z,16.80
2017-10-29T03:01:47.766Z,16.80
2017-10-29T03:04:15.222Z,16.70
2017-10-29T03:06:42.676Z,16.70
2017-10-29T03:09:10.139Z,16.70
2017-10-29T03:11:37.599Z,16.70
2017-10-29T03:14:05.078Z,16.70
2017-10-29T03:16:33.285Z,16.70
2017-10-29T03:19:01.504Z,16.70
2017-10-29T03:21:28.951Z,16.70
2017-10-29T03:23:56.419Z,16.70
2017-10-29T03:26:23.879Z,16.70
2017-10-29T03:28:51.333Z,16.70
2017-10-29T03:31:18.790Z,16.60
2017-10-29T03:33:46.239Z,16.60
2017-10-29T03:36:13.698Z,16.60
2017-10-29T03:38:41.176Z,16.60
2017-10-29T03:41:08.637Z,16.60
2017-10-29T03:43:36.098Z,16.60
2017-10-29T03:46:03.554Z,16.50
2017-10-29T03:48:31.007Z,16.50
2017-10-29T03:50:58.471Z,16.50
2017-10-29T03:53:25.922Z,16.50
2017-10-29T03:55:53.381Z,16.40
2017-10-29T03:58:20.845Z,16.40
2017-10-29T04:00:48.327Z,16.40
2017-10-29T04:03:15.791Z,16.40
2017-10-29T04:05:43.269Z,16.40
2017-10-29T04:08:10.723Z,16.30
2017-10-29T04:10:38.222Z,16.40
2017-10-29T04:13:06.446Z,16.30
2017-10-29T04:15:34.696Z,16.30
2017-10-29T04:18:02.152Z,16.30
2017-10-29T04:20:29.605Z,16.30
2017-10-29T04:22:57.074Z,16.30
2017-10-29T04:25:24.518Z,16.30
2017-10-29T04:27:51.987Z,16.20
2017-10-29T04:30:19.458Z,16.20
2017-10-29T04:32:47.686Z,16.20
2017-10-29T04:35:15.142Z,16.10
2017-10-29T04:37:42.614Z,16.10
2017-10-29T04:40:10.057Z,16.20
2017-10-29T04:42:37.535Z,16.20
2017-10-29T04:45:04.994Z,16.10
2017-10-29T04:47:32.450Z,16.20
2017-10-29T04:49:59.918Z,16.10
2017-10-29T04:52:27.386Z,16.10
2017-10-29T04:54:54.843Z,16.10
2017-10-29T04:57:22.291Z,16.10
2017-10-29T04:59:49.747Z,16.10
2017-10-29T05:02:17.989Z,16.10
2017-10-29T05:04:45.446Z,16.10
2017-10-29T05:07:12.915Z,16.10
2017-10-29T05:09:40.370Z,16.10
2017-10-29T05:12:07.849Z,16.10
2017-10-29T05:14:35.314Z,16.10
2017-10-29T05:17:02.775Z,16.10
2017-10-29T05:19:31.023Z,16.00
2017-10-29T05:21:58.478Z,16.10
2017-10-29T05:24:25.936Z,16.10
2017-10-29T05:26:53.393Z,16.00
2017-10-29T05:29:20.853Z,16.00
2017-10-29T05:31:48.331Z,16.00
2017-10-29T05:34:15.799Z,16.00
2017-10-29T05:36:44.046Z,15.90
2017-10-29T05:39:11.513Z,15.90
2017-10-29T05:41:38.999Z,15.90
2017-10-29T05:44:06.473Z,15.90
2017-10-29T05:46:33.926Z,15.90
2017-10-29T05:49:01.380Z,15.90
2017-10-29T05:51:28.829Z,15.90
2017-10-29T05:53:57.059Z,15.90
2017-10-29T05:56:24.519Z,15.90
2017-10-29T05:58:51.990Z,15.90
2017-10-29T06:01:19.449Z,15.90
2017-10-29T06:03:46.913Z,15.80
2017-10-29T06:06:14.387Z,15.80
2017-10-29T06:08:42.627Z,15.80
2017-10-29T06:11:10.108Z,15.80
2017-10-29T06:13:37.577Z,15.80
2017-10-29T06:16:05.090Z,15.90
2017-10-29T06:18:32.550Z,15.90
2017-10-29T06:21:00.771Z,15.80
2017-10-29T06:23:28.246Z,15.80
2017-10-29T06:25:55.698Z,15.80
2017-10-29T06:28:23.160Z,15.80
2017-10-29T06:30:50.650Z,15.80
2017-10-29T06:33:18.106Z,15.80
2017-10-29T06:35:45.609Z,15.80
2017-10-29T06:38:13.051Z,15.80
2017-10-29T06:40:41.305Z,15.80
2017-10-29T06:43:08.762Z,15.80
2017-10-29T06:45:36.234Z,15.80
2017-10-29T06:48:04.453Z,15.90
2017-10-29T06:50:31.939Z,15.80
2017-10-29T06:52:59.393Z,15.90
2017-10-29T06:55:26.851Z,15.90
2017-10-29T06:57:54.321Z,15.80
2017-10-29T07:00:21.794Z,15.90
2017-10-29T07:02:50.019Z,15.90
2017-10-29T07:05:17.477Z,15.90
2017-10-29T07:07:44.946Z,15.90
2017-10-29T07:10:12.401Z,15.90
2017-10-29T07:12:39.861Z,15.90
2017-10-29T07:15:07.316Z,16.00
2017-10-29T07:17:34.785Z,16.00
2017-10-29T07:20:02.266Z,16.00
2017-10-29T07:22:29.734Z,16.00
2017-10-29T07:24:57.947Z,16.00
2017-10-29T07:27:25.406Z,16.00
2017-10-29T07:32:26.715Z,16.00
2017-10-29T07:34:54.173Z,16.10
2017-10-29T07:37:21.642Z,16.20
2017-10-29T07:39:49.094Z,16.20
2017-10-29T07:42:16.567Z,16.30
2017-10-29T07:44:44.026Z,16.40
2017-10-29T07:47:11.482Z,16.50
2017-10-29T07:49:38.951Z,16.40
2017-10-29T07:52:06.418Z,16.40
2017-10-29T07:54:33.885Z,16.30
2017-10-29T07:57:01.333Z,16.30
2017-10-29T07:59:28.838Z,16.30
2017-10-29T08:01:56.295Z,16.40
2017-10-29T08:04:23.797Z,16.50
2017-10-29T08:06:52.020Z,16.70
2017-10-29T08:09:19.524Z,16.70
2017-10-29T08:11:46.981Z,16.80
2017-10-29T08:14:14.437Z,16.90
2017-10-29T08:16:41.887Z,17.10
2017-10-29T08:19:09.350Z,17.10
2017-10-29T08:21:36.817Z,17.20
2017-10-29T08:24:05.046Z,17.10
2017-10-29T08:26:32.519Z,17.10
2017-10-29T08:28:59.987Z,17.00
2017-10-29T08:31:28.204Z,16.90
2017-10-29T08:33:55.667Z,16.90
2017-10-29T08:36:23.115Z,16.80
2017-10-29T08:38:50.561Z,16.80
2017-10-29T08:41:18.022Z,16.80
2017-10-29T08:43:46.243Z,16.80
2017-10-29T08:46:13.730Z,16.80
2017-10-29T08:48:41.199Z,17.00
2017-10-29T08:51:08.729Z,17.30
2017-10-29T08:53:36.951Z,17.40
2017-10-29T08:56:05.178Z,17.40
2017-10-29T08:58:32.627Z,17.30
2017-10-29T09:01:00.098Z,17.30
2017-10-29T09:03:27.597Z,17.30
2017-10-29T09:05:55.814Z,17.90
2017-10-29T09:08:23.296Z,17.90
2017-10-29T09:10:50.766Z,18.20
2017-10-29T09:13:18.220Z,18.60
2017-10-29T09:15:45.677Z,19.00
2017-10-29T09:18:13.145Z,19.00
2017-10-29T09:20:41.385Z,19.40
2017-10-29T09:23:08.843Z,19.40
2017-10-29T09:25:36.331Z,19.40
2017-10-29T09:28:03.775Z,19.30
2017-10-29T09:30:31.237Z,19.30
2017-10-29T09:32:58.702Z,19.80
2017-10-29T09:35:26.171Z,19.90
2017-10-29T09:37:54.389Z,19.40
2017-10-29T09:40:21.847Z,19.40
2017-10-29T09:42:49.328Z,19.60
2017-10-29T09:45:16.826Z,20.00
2017-10-29T09:47:44.358Z,20.30
2017-10-29T09:50:11.821Z,20.50
2017-10-29T09:52:39.280Z,20.60
2017-10-29T09:55:06.734Z,21.10
2017-10-29T09:57:34.202Z,21.30
2017-10-29T10:00:01.646Z,21.60
2017-10-29T10:02:29.102Z,22.40
2017-10-29T10:04:56.598Z,22.80
2017-10-29T10:07:24.066Z,23.10
2017-10-29T10:09:52.302Z,23.60
2017-10-29T10:12:19.755Z,23.50
2017-10-29T10:14:48.840Z,23.50
2017-10-29T10:17:17.066Z,23.20
2017-10-29T10:19:44.603Z,23.20
2017-10-29T10:22:12.843Z,22.90
2017-10-29T10:24:40.327Z,22.80
2017-10-29T10:27:08.603Z,22.80
2017-10-29T10:29:36.074Z,22.80
2017-10-29T10:32:04.302Z,22.90
2017-10-29T10:34:32.588Z,23.30
2017-10-29T10:37:00.816Z,23.40
2017-10-29T10:39:28.289Z,23.40
2017-10-29T10:41:55.756Z,23.40
2017-10-29T10:44:23.202Z,23.50
2017-10-29T10:46:51.555Z,23.40
2017-10-29T10:49:19.785Z,23.30
2017-10-29T10:51:47.999Z,24.00
2017-10-29T10:54:15.529Z,24.00
2017-10-29T10:56:43.741Z,23.50
2017-10-29T10:59:11.375Z,23.50
2017-10-29T11:01:38.881Z,23.60
2017-10-29T11:04:06.378Z,23.50
2017-10-29T11:06:34.590Z,24.00
2017-10-29T11:09:02.839Z,24.80
2017-10-29T11:11:30.293Z,24.80
2017-10-29T11:13:57.766Z,25.40
2017-10-29T11:16:26.034Z,26.30
2017-10-29T11:18:53.514Z,26.30
2017-10-29T11:21:21.793Z,26.80
2017-10-29T11:23:50.070Z,26.90
2017-10-29T11:26:18.339Z,27.20
2017-10-29T11:28:46.570Z,27.40
2017-10-29T11:31:14.054Z,27.30
2017-10-29T11:33:41.523Z,27.30
2017-10-29T11:36:10.907Z,26.80
2017-10-29T11:38:38.420Z,26.70
2017-10-29T11:41:05.922Z,26.50
2017-10-29T11:43:33.397Z,26.00
2017-10-29T11:46:01.646Z,25.20
2017-10-29T11:48:29.106Z,25.20
2017-10-29T11:50:56.589Z,25.40
2017-10-29T11:53:24.879Z,26.10
2017-10-29T11:55:52.390Z,26.10
2017-10-29T11:58:19.880Z,26.70
2017-10-29T12:00:47.345Z,27.20
2017-10-29T12:03:15.614Z,27.30
2017-10-29T12:05:43.874Z,26.60
2017-10-29T12:08:11.371Z,26.60
2017-10-29T12:10:39.626Z,25.90
2017-10-29T12:13:07.869Z,25.30
2017-10-29T12:15:36.898Z,25.60
2017-10-29T12:18:04.422Z,25.60
2017-10-29T12:20:32.666Z,26.20
2017-10-29T12:23:00.123Z,26.20
2017-10-29T12:25:27.630Z,25.90
2017-10-29T12:27:55.098Z,25.30
2017-10-29T12:30:22.578Z,24.90
2017-10-29T12:32:50.815Z,24.20
2017-10-29T12:35:18.303Z,24.10
2017-10-29T12:37:46.558Z,23.70
2017-10-29T12:40:14.037Z,23.70
2017-10-29T12:42:42.278Z,23.30
2017-10-29T12:45:09.759Z,23.30
2017-10-29T12:47:37.988Z,23.50
2017-10-29T12:50:05.445Z,23.40
2017-10-29T12:52:32.910Z,24.00
2017-10-29T12:55:00.390Z,24.60
2017-10-29T12:57:27.866Z,23.90
2017-10-29T12:59:56.113Z,23.10
2017-10-29T13:02:23.578Z,23.10
2017-10-29T13:04:51.069Z,23.00
2017-10-29T13:07:19.343Z,23.70
2017-10-29T13:09:47.570Z,23.80
2017-10-29T13:12:15.042Z,23.80
2017-10-29T13:14:42.554Z,25.20
2017-10-29T13:17:10.037Z,28.20
2017-10-29T13:19:37.490Z,28.60
2017-10-29T13:22:04.985Z,29.50
2017-10-29T13:24:32.477Z,31.80
2017-10-29T13:26:59.994Z,33.40
2017-10-29T13:29:27.497Z,34.60
2017-10-29T13:31:55.742Z,35.80
2017-10-29T13:34:23.207Z,35.80
2017-10-29T13:36:50.655Z,36.30
2017-10-29T13:39:18.125Z,36.80
2017-10-29T13:41:46.362Z,37.10
2017-10-29T13:44:13.870Z,37.00
2017-10-29T13:46:43.182Z,34.80
2017-10-29T13:49:11.414Z,32.60
2017-10-29T13:51:38.882Z,32.50
2017-10-29T13:54:06.356Z,31.20
2017-10-29T13:56:34.576Z,28.80
2017-10-29T13:59:02.042Z,28.70
2017-10-29T14:01:29.497Z,28.10
2017-10-29T14:03:56.986Z,27.40
2017-10-29T14:06:24.447Z,26.80
2017-10-29T14:08:52.707Z,25.50
2017-10-29T14:11:20.189Z,25.40
2017-10-29T14:13:48.482Z,24.10
2017-10-29T14:16:16.706Z,23.70
2017-10-29T14:18:44.165Z,23.70
2017-10-29T14:21:11.667Z,23.50
2017-10-29T14:23:39.118Z,24.00
2017-10-29T14:26:07.343Z,23.70
2017-10-29T14:28:34.797Z,23.70
2017-10-29T14:31:04.180Z,23.90
2017-10-29T14:33:31.659Z,23.90
2017-10-29T14:35:59.119Z,24.00
2017-10-29T14:38:26.606Z,24.20
2017-10-29T14:40:54.068Z,24.60
2017-10-29T14:43:21.523Z,24.90
2017-10-29T14:45:48.998Z,25.60
2017-10-29T14:48:16.480Z,25.90
2017-10-29T14:50:43.961Z,25.90
2017-10-29T14:53:11.461Z,25.80
2017-10-29T14:55:38.918Z,25.60
2017-10-29T14:58:07.150Z,25.30
2017-10-29T15:00:34.636Z,25.30
2017-10-29T15:03:02.086Z,25.30
2017-10-29T15:05:29.552Z,25.00
2017-10-29T15:07:57.014Z,24.80
2017-10-29T15:10:24.520Z,24.40
2017-10-29T15:12:51.993Z,24.00
2017-10-29T15:15:19.465Z,23.60
2017-10-29T15:17:46.917Z,23.20
2017-10-29T15:20:14.394Z,22.90
2017-10-29T15:22:41.874Z,22.50
2017-10-29T15:25:10.106Z,22.00
2017-10-29T15:27:37.566Z,22.00
2017-10-29T15:30:05.039Z,21.80
2017-10-29T15:32:32.486Z,21.60
2017-10-29T15:34:59.942Z,21.50
2017-10-29T15:37:27.401Z,21.30
2017-10-29T15:39:54.858Z,21.10
2017-10-29T15:42:22.658Z,20.90
2017-10-29T15:44:50.109Z,20.80
2017-10-29T15:47:17.566Z,20.60
2017-10-29T15:49:45.023Z,20.50
2017-10-29T15:52:12.524Z,20.30
2017-10-29T15:54:39.984Z,20.20
2017-10-29T15:57:07.463Z,20.10
2017-10-29T15:59:34.927Z,19.90
2017-10-29T16:02:02.383Z,19.90
2017-10-29T16:04:29.838Z,19.80
2017-10-29T16:06:57.313Z,19.70
2017-10-29T16:09:24.774Z,19.60
2017-10-29T16:11:52.242Z,19.50
2017-10-29T16:14:19.696Z,19.40
2017-10-29T16:16:47.162Z,19.30
2017-10-29T16:19:14.615Z,19.30
2017-10-29T16:21:42.091Z,19.20
2017-10-29T16:24:10.331Z,19.10
2017-10-29T16:26:37.809Z,19.10
2017-10-29T16:29:06.800Z,19.00
2017-10-29T16:31:34.322Z,19.00
2017-10-29T16:34:01.795Z,19.00
2017-10-29T16:36:30.015Z,18.80
2017-10-29T16:38:57.489Z,18.80
2017-10-29T16:41:24.930Z,18.80
2017-10-29T16:43:52.386Z,18.70
2017-10-29T16:46:19.893Z,18.70
2017-10-29T16:48:48.119Z,18.60
2017-10-29T16:51:16.347Z,18.60
2017-10-29T16:53:43.803Z,18.60
2017-10-29T16:56:11.255Z,18.50
2017-10-29T16:58:38.728Z,18.50
2017-10-29T17:01:06.234Z,18.50
2017-10-29T17:03:33.694Z,18.50
2017-10-29T17:06:01.141Z,18.40
2017-10-29T17:08:29.983Z,18.30
2017-10-29T17:10:57.459Z,18.30
2017-10-29T17:13:24.911Z,18.30
2017-10-29T17:15:52.370Z,18.30
2017-10-29T17:18:19.826Z,18.30
2017-10-29T17:20:47.291Z,18.20
2017-10-29T17:23:14.755Z,18.20
2017-10-29T17:25:42.210Z,18.20
2017-10-29T17:28:09.660Z,18.20
2017-10-29T17:30:37.118Z,18.10
2017-10-29T17:33:04.565Z,18.10
2017-10-29T17:35:32.026Z,18.10
2017-10-29T17:38:00.239Z,18.00
2017-10-29T17:40:27.753Z,18.00
2017-10-29T17:42:55.966Z,18.00
2017-10-29T17:45:24.194Z,18.00
2017-10-29T17:47:51.674Z,18.00
2017-10-29T17:50:19.123Z,17.90
2017-10-29T17:52:47.343Z,17.90
2017-10-29T17:55:14.793Z,17.90
2017-10-29T17:57:43.038Z,17.80
2017-10-29T18:00:10.490Z,17.80
2017-10-29T18:02:37.941Z,17.90
2017-10-29T18:05:05.402Z,17.80
2017-10-29T18:07:32.866Z,17.80
2017-10-29T18:10:00.331Z,17.80
2017-10-29T18:12:27.815Z,17.70
2017-10-29T18:14:56.034Z,17.70
2017-10-29T18:17:23.498Z,17.70
2017-10-29T18:19:50.974Z,17.80
2017-10-29T18:22:18.439Z,17.70
2017-10-29T18:24:45.906Z,17.70
2017-10-29T18:27:13.350Z,17.60
2017-10-29T18:29:40.811Z,17.60
2017-10-29T18:32:08.258Z,17.60
2017-10-29T18:34:35.730Z,17.60
2017-10-29T18:37:03.206Z,17.50
2017-10-29T18:39:31.434Z,17.50
2017-10-29T18:41:58.888Z,17.40
2017-10-29T18:44:26.359Z,17.50
2017-10-29T18:46:53.818Z,17.50
2017-10-29T18:49:21.288Z,17.50
2017-10-29T18:51:48.739Z,17.50
2017-10-29T18:54:16.202Z,17.50
2017-10-29T18:56:43.667Z,17.50
2017-10-29T18:59:11.148Z,17.40
2017-10-29T19:01:38.628Z,17.30
2017-10-29T19:04:06.102Z,17.30
2017-10-29T19:06:33.566Z,17.40
2017-10-29T19:09:01.057Z,17.30
2017-10-29T19:11:28.514Z,17.30
2017-10-29T19:13:56.754Z,17.20
2017-10-29T19:16:24.223Z,17.20
2017-10-29T19:18:51.691Z,17.20
2017-10-29T19:21:19.186Z,17.30
2017-10-29T19:23:47.397Z,17.20
2017-10-29T19:26:14.863Z,17.20
2017-10-29T19:28:42.338Z,17.20
2017-10-29T19:31:09.786Z,17.20
2017-10-29T19:33:38.006Z,17.10
2017-10-29T19:36:06.235Z,17.10
2017-10-29T19:38:33.686Z,17.10
2017-10-29T19:41:01.162Z,17.20
2017-10-29T19:43:28.609Z,17.10
2017-10-29T19:45:56.066Z,17.10
2017-10-29T19:48:23.525Z,17.10
2017-10-29T19:50:50.982Z,17.10
2017-10-29T19:53:18.501Z,17.10
2017-10-29T19:55:46.009Z,17.00
2017-10-29T19:58:13.463Z,17.30
2017-10-29T20:00:40.947Z,17.60
2017-10-29T20:03:08.418Z,16.60
2017-10-29T20:05:35.891Z,15.80
2017-10-29T20:08:03.338Z,15.40
2017-10-29T20:10:30.816Z,15.10
2017-10-29T20:12:58.262Z,14.80
2017-10-29T20:15:25.707Z,14.60
2017-10-29T20:17:53.166Z,14.30
2017-10-29T20:20:20.626Z,14.20
2017-10-29T20:22:48.086Z,14.10
2017-10-29T20:25:15.538Z,13.80
2017-10-29T20:27:44.599Z,13.50
2017-10-29T20:30:12.250Z,13.50
2017-10-29T20:32:39.705Z,13.40
2017-10-29T20:35:07.155Z,13.50
2017-10-29T20:37:34.643Z,13.70
2017-10-29T20:40:02.103Z,13.90
2017-10-29T20:42:30.343Z,14.00
2017-10-29T20:44:57.811Z,13.90
2017-10-29T20:47:25.286Z,13.60
2017-10-29T20:52:26.696Z,13.60
2017-10-29T20:54:54.149Z,13.70
2017-10-29T20:57:22.522Z,13.60
2017-10-29T20:59:49.974Z,13.60
2017-10-29T21:02:19.318Z,13.20
2017-10-29T21:04:46.779Z,13.10
2017-10-29T21:07:14.254Z,13.30
2017-10-29T21:09:41.738Z,13.30
2017-10-29T21:12:09.959Z,13.30
2017-10-29T21:14:37.418Z,13.20
2017-10-29T21:17:04.904Z,13.20
2017-10-29T21:19:32.362Z,13.20
2017-10-29T21:22:01.326Z,13.00
2017-10-29T21:24:29.465Z,12.90
2017-10-29T21:26:57.692Z,13.00
2017-10-29T21:29:25.151Z,13.00
2017-10-29T21:31:52.630Z,13.30
2017-10-29T21:34:20.077Z,13.50
2017-10-29T21:36:47.526Z,13.70
2017-10-29T21:39:15.751Z,13.60
2017-10-29T21:41:43.207Z,13.60
2017-10-29T21:44:10.662Z,13.40
2017-10-29T21:46:38.113Z,13.40
2017-10-29T21:49:05.570Z,13.50
2017-10-29T21:51:33.022Z,13.50
2017-10-29T21:54:00.470Z,13.40
2017-10-29T21:56:28.695Z,13.30
2017-10-29T21:58:56.916Z,13.40
2017-10-29T22:01:24.366Z,13.30
2017-10-29T22:03:51.822Z,13.40
2017-10-29T22:06:20.035Z,13.90
2017-10-29T22:08:47.514Z,14.00
2017-10-29T22:11:14.977Z,14.50
2017-10-29T22:13:42.428Z,14.80
2017-10-29T22:16:09.891Z,15.00
2017-10-29T22:18:37.343Z,15.20
2017-10-29T22:21:04.804Z,15.30
2017-10-29T22:23:32.266Z,15.40
2017-10-29T22:25:59.742Z,15.40
2017-10-29T22:28:27.187Z,15.50
2017-10-29T22:30:54.655Z,15.60
2017-10-29T22:33:22.101Z,15.50
2017-10-29T22:35:49.566Z,15.60
2017-10-29T22:38:17.024Z,15.60
2017-10-29T22:40:44.485Z,15.60
2017-10-29T22:43:11.945Z,15.70
2017-10-29T22:45:39.414Z,15.60
2017-10-29T22:48:06.859Z,15.70
2017-10-29T22:50:37.868Z,15.60
2017-10-29T22:53:05.328Z,15.60
2017-10-29T22:55:32.790Z,15.70
2017-10-29T22:58:00.254Z,15.70
2017-10-29T23:00:27.703Z,15.70
2017-10-29T23:02:55.175Z,15.70
2017-10-29T23:05:34.446Z,15.70
2017-10-29T23:08:09.834Z,15.70
2017-10-29T23:10:37.287Z,15.70
2017-10-29T23:13:04.730Z,15.70
2017-10-29T23:15:32.171Z,15.70
2017-10-29T23:17:59.621Z,15.70
2017-10-29T23:20:27.851Z,15.60
2017-10-29T23:22:55.319Z,15.60
2017-10-29T23:25:22.773Z,15.60
2017-10-29T23:27:50.242Z,15.60
2017-10-29T23:30:17.694Z,15.60
2017-10-29T23:32:45.162Z,15.70
2017-10-29T23:35:12.601Z,15.60
2017-10-29T23:37:40.071Z,15.60
2017-10-29T23:40:07.517Z,15.60
2017-10-29T23:42:34.982Z,15.60
2017-10-29T23:45:02.439Z,15.60
2017-10-29T23:47:29.898Z,15.60
2017-10-29T23:49:57.355Z,15.60
2017-10-29T23:52:24.818Z,15.60
2017-10-29T23:54:52.274Z,15.70
2017-10-29T23:57:19.734Z,15.60
2017-10-29T23:59:47.214Z,15.60
